Time;durP1;ratioP1;P1;durP2;ratioP2;P2;SDS_P1;SDS_P2;PMS_P1;PMS_P2;Temp;Humidity;BMP_temperature;BMP_pressure;BME280_temperature;BME280_humidity;BME280_pressure;Samples;Min_cycle;Max_cycle;Signal;HPM_P1;HPM_P2
2022/07/08 00:01:54;;;;;;;9.45;5.50;;;;;;;;;;5042625;28;20059;-66
2022/07/08 00:04:21;;;;;;;6.25;5.68;;;;;;;;;;5039935;28;20043;-66
2022/07/08 00:06:47;;;;;;;6.63;5.40;;;;;;;;;;5043329;28;20029;-65
2022/07/08 00:09:13;;;;;;;5.63;5.25;;;;;;;;;;5044690;28;20037;-65
2022/07/08 00:11:40;;;;;;;7.13;5.57;;;;;;;;;;5045076;28;20102;-65
2022/07/08 00:14:06;;;;;;;6.75;5.43;;;;;;;;;;5043507;28;20029;-65
2022/07/08 00:16:33;;;;;;;6.30;5.20;;;;;;;;;;5043323;28;20055;-65
2022/07/08 00:18:59;;;;;;;6.15;5.50;;;;;;;;;;5043398;28;20040;-65
2022/07/08 00:21:25;;;;;;;6.10;5.40;;;;;;;;;;5028803;28;20037;-65
2022/07/08 00:23:51;;;;;;;6.20;5.55;;;;;;;;;;5044631;28;20033;-66
2022/07/08 00:26:16;;;;;;;7.07;5.75;;;;;;;;;;5049809;28;20056;-65
2022/07/08 00:28:42;;;;;;;11.23;5.70;;;;;;;;;;5038093;28;20071;-65
2022/07/08 00:31:07;;;;;;;7.45;6.03;;;;;;;;;;5041851;28;20045;-65
2022/07/08 00:33:34;;;;;;;6.63;5.40;;;;;;;;;;5039470;28;20041;-65
2022/07/08 00:35:59;;;;;;;10.23;5.78;;;;;;;;;;5045347;28;20076;-65
2022/07/08 00:38:25;;;;;;;8.13;5.97;;;;;;;;;;5043164;28;20428;-65
2022/07/08 00:40:50;;;;;;;8.18;5.60;;;;;;;;;;5042565;28;20041;-65
2022/07/08 00:43:37;;;;;;;6.72;6.00;;;;;;;;;;5044953;28;20167;-66
2022/07/08 00:46:04;;;;;;;6.63;5.68;;;;;;;;;;5042809;28;20120;-65
2022/07/08 00:48:30;;;;;;;10.23;6.10;;;;;;;;;;5040494;28;20091;-65
2022/07/08 00:51:03;;;;;;;6.07;5.63;;;;;;;;;;5041628;28;20037;-66
2022/07/08 00:53:30;;;;;;;7.28;6.10;;;;;;;;;;5042864;28;20045;-65
2022/07/08 00:55:58;;;;;;;6.30;5.70;;;;;;;;;;5045663;28;20638;-65
2022/07/08 00:58:25;;;;;;;9.85;6.25;;;;;;;;;;5041811;28;20033;-65
2022/07/08 01:00:53;;;;;;;7.72;5.72;;;;;;;;;;5040684;28;20057;-65
2022/07/08 01:03:20;;;;;;;10.77;5.88;;;;;;;;;;5042259;28;20103;-66
2022/07/08 01:05:46;;;;;;;11.35;6.30;;;;;;;;;;5049742;28;20037;-66
2022/07/08 01:08:12;;;;;;;6.80;6.15;;;;;;;;;;5042548;28;20048;-65
2022/07/08 01:10:38;;;;;;;7.30;6.28;;;;;;;;;;5043961;28;20730;-66
2022/07/08 01:13:05;;;;;;;9.90;6.35;;;;;;;;;;5047705;28;20037;-65
2022/07/08 01:15:31;;;;;;;10.02;6.78;;;;;;;;;;5040590;28;20170;-66
2022/07/08 01:17:57;;;;;;;8.25;6.75;;;;;;;;;;5043397;28;20041;-65
2022/07/08 01:20:22;;;;;;;9.32;6.05;;;;;;;;;;5043916;28;20052;-66
2022/07/08 01:22:48;;;;;;;10.98;6.80;;;;;;;;;;5049333;28;20033;-66
2022/07/08 01:25:14;;;;;;;9.65;6.53;;;;;;;;;;5050136;28;20086;-66
2022/07/08 01:27:40;;;;;;;11.20;6.75;;;;;;;;;;5047232;28;20087;-66
2022/07/08 01:30:07;;;;;;;9.32;6.30;;;;;;;;;;5048328;28;20115;-65
2022/07/08 01:32:34;;;;;;;7.45;5.93;;;;;;;;;;5048805;28;20037;-65
2022/07/08 01:35:00;;;;;;;6.57;5.93;;;;;;;;;;5045139;28;20055;-65
2022/07/08 01:37:26;;;;;;;11.48;6.45;;;;;;;;;;5046282;28;20033;-67
2022/07/08 01:39:52;;;;;;;10.73;7.18;;;;;;;;;;5052501;28;20029;-65
2022/07/08 01:42:18;;;;;;;6.70;6.13;;;;;;;;;;5045961;28;20037;-66
2022/07/08 01:44:43;;;;;;;13.35;6.72;;;;;;;;;;5048160;28;20068;-66
2022/07/08 01:47:09;;;;;;;8.65;6.50;;;;;;;;;;5052002;28;20029;-66
2022/07/08 01:49:34;;;;;;;9.35;6.75;;;;;;;;;;5046118;28;20063;-66
2022/07/08 01:52:00;;;;;;;9.32;6.30;;;;;;;;;;5044637;28;20466;-66
2022/07/08 01:54:26;;;;;;;10.57;6.70;;;;;;;;;;5048952;28;20039;-66
2022/07/08 01:57:13;;;;;;;11.55;6.38;;;;;;;;;;5046881;28;20550;-68
2022/07/08 01:59:37;;;;;;;7.32;5.65;;;;;;;;;;5046196;28;20049;-66
2022/07/08 02:02:03;;;;;;;9.30;6.60;;;;;;;;;;5042922;28;20084;-66
2022/07/08 02:04:29;;;;;;;9.48;6.22;;;;;;;;;;5047655;28;20102;-66
2022/07/08 02:06:55;;;;;;;12.00;7.07;;;;;;;;;;5046478;28;20458;-66
2022/07/08 02:09:21;;;;;;;8.10;5.93;;;;;;;;;;5046952;28;20129;-66
2022/07/08 02:14:32;;;;;;;7.50;5.82;;;;;;;;;;5048555;28;20040;-66
2022/07/08 02:16:58;;;;;;;11.20;6.70;;;;;;;;;;5044230;28;20483;-66
2022/07/08 02:19:24;;;;;;;8.27;6.03;;;;;;;;;;5047174;28;20055;-66
2022/07/08 02:21:50;;;;;;;9.07;6.15;;;;;;;;;;5048052;28;20519;-66
2022/07/08 02:24:16;;;;;;;7.78;6.13;;;;;;;;;;5043010;28;20556;-66
2022/07/08 02:26:42;;;;;;;7.18;6.20;;;;;;;;;;5046249;28;20120;-65
2022/07/08 02:29:08;;;;;;;9.05;6.22;;;;;;;;;;5046874;28;20039;-67
2022/07/08 02:31:34;;;;;;;7.28;6.03;;;;;;;;;;5048562;28;20036;-65
2022/07/08 02:34:00;;;;;;;8.45;5.88;;;;;;;;;;5042609;28;20075;-66
2022/07/08 02:36:26;;;;;;;8.07;5.93;;;;;;;;;;5046356;28;20028;-66
2022/07/08 02:38:52;;;;;;;10.05;6.28;;;;;;;;;;5045117;28;20029;-65
2022/07/08 02:41:18;;;;;;;9.43;6.28;;;;;;;;;;5048750;28;20108;-65
2022/07/08 02:43:43;;;;;;;10.63;6.57;;;;;;;;;;5041938;28;20037;-65
2022/07/08 02:46:09;;;;;;;8.82;5.88;;;;;;;;;;5047727;28;20056;-65
2022/07/08 02:48:34;;;;;;;11.48;6.90;;;;;;;;;;5045014;28;20037;-65
2022/07/08 02:51:01;;;;;;;9.23;6.22;;;;;;;;;;5040440;28;20033;-65
2022/07/08 02:53:27;;;;;;;10.32;6.18;;;;;;;;;;5038166;28;20066;-65
2022/07/08 02:55:52;;;;;;;12.05;7.20;;;;;;;;;;5047842;28;20037;-65
2022/07/08 02:58:18;;;;;;;11.68;5.88;;;;;;;;;;5044510;28;20065;-65
2022/07/08 03:00:43;;;;;;;8.43;5.75;;;;;;;;;;5042612;28;20107;-67
2022/07/08 03:03:09;;;;;;;6.78;6.07;;;;;;;;;;5044887;28;20112;-65
2022/07/08 03:05:35;;;;;;;7.80;6.13;;;;;;;;;;5044278;28;20036;-66
2022/07/08 03:08:00;;;;;;;7.30;6.10;;;;;;;;;;5045983;28;20033;-65
2022/07/08 03:10:26;;;;;;;9.90;6.13;;;;;;;;;;5044158;28;20027;-65
2022/07/08 03:12:52;;;;;;;6.32;5.75;;;;;;;;;;5045680;28;20055;-64
2022/07/08 03:15:17;;;;;;;14.38;6.03;;;;;;;;;;5045067;28;20028;-64
2022/07/08 03:17:43;;;;;;;7.82;5.97;;;;;;;;;;5047059;28;20085;-64
2022/07/08 03:20:09;;;;;;;7.65;5.50;;;;;;;;;;5042903;28;20072;-64
2022/07/08 03:22:34;;;;;;;8.30;5.88;;;;;;;;;;5041187;28;20044;-64
2022/07/08 03:25:00;;;;;;;6.57;5.90;;;;;;;;;;5042598;28;20041;-65
2022/07/08 03:27:26;;;;;;;10.45;6.10;;;;;;;;;;5035539;28;20424;-64
2022/07/08 03:29:51;;;;;;;10.50;6.20;;;;;;;;;;5042609;28;20043;-64
2022/07/08 03:32:17;;;;;;;9.25;6.00;;;;;;;;;;5044961;28;20028;-66
2022/07/08 03:34:42;;;;;;;10.55;6.25;;;;;;;;;;5033205;28;20094;-66
2022/07/08 03:37:08;;;;;;;9.45;5.90;;;;;;;;;;5043404;28;20662;-64
2022/07/08 03:39:34;;;;;;;10.88;6.18;;;;;;;;;;5041580;28;20032;-64
2022/07/08 03:42:00;;;;;;;11.38;6.15;;;;;;;;;;5040182;28;20032;-65
2022/07/08 03:44:25;;;;;;;6.13;5.70;;;;;;;;;;5038634;28;20025;-64
2022/07/08 03:46:51;;;;;;;10.10;6.32;;;;;;;;;;5043544;28;20506;-64
2022/07/08 03:49:16;;;;;;;7.22;6.25;;;;;;;;;;5042804;28;20523;-64
2022/07/08 03:51:42;;;;;;;7.15;6.43;;;;;;;;;;5032269;28;20680;-65
2022/07/08 03:54:08;;;;;;;9.75;6.45;;;;;;;;;;5045175;28;20041;-64
2022/07/08 03:56:35;;;;;;;7.97;5.57;;;;;;;;;;5041534;28;20186;-64
2022/07/08 03:59:00;;;;;;;12.75;6.00;;;;;;;;;;5044932;28;20120;-64
2022/07/08 04:01:26;;;;;;;9.02;6.15;;;;;;;;;;5042440;28;20435;-64
2022/07/08 04:03:51;;;;;;;7.15;6.10;;;;;;;;;;5046722;28;20041;-64
2022/07/08 04:06:17;;;;;;;7.20;5.80;;;;;;;;;;5045052;28;20044;-64
2022/07/08 04:08:43;;;;;;;11.38;6.70;;;;;;;;;;5049051;28;20171;-65
2022/07/08 04:11:08;;;;;;;13.05;7.35;;;;;;;;;;5038002;28;20037;-65
2022/07/08 04:13:34;;;;;;;11.45;6.35;;;;;;;;;;5045643;28;20033;-65
2022/07/08 04:16:00;;;;;;;6.65;5.78;;;;;;;;;;5042206;28;20463;-65
2022/07/08 04:18:26;;;;;;;9.40;5.80;;;;;;;;;;5046608;28;20112;-65
2022/07/08 04:20:51;;;;;;;11.77;6.30;;;;;;;;;;5039203;28;20501;-65
2022/07/08 04:23:17;;;;;;;10.07;5.88;;;;;;;;;;5044410;28;20536;-65
2022/07/08 04:25:43;;;;;;;8.52;5.78;;;;;;;;;;5045615;28;20357;-65
2022/07/08 04:28:08;;;;;;;6.63;5.75;;;;;;;;;;5042646;28;20040;-65
2022/07/08 04:30:34;;;;;;;7.43;5.68;;;;;;;;;;5042606;28;20040;-64
2022/07/08 04:33:00;;;;;;;11.32;6.43;;;;;;;;;;5046676;28;20041;-64
2022/07/08 04:35:25;;;;;;;11.85;6.25;;;;;;;;;;5052017;28;20090;-65
2022/07/08 04:37:51;;;;;;;7.95;5.95;;;;;;;;;;5040662;28;20041;-64
2022/07/08 04:40:16;;;;;;;11.95;6.20;;;;;;;;;;5048946;28;20483;-64
2022/07/08 04:42:42;;;;;;;7.95;6.00;;;;;;;;;;5039328;28;20507;-64
2022/07/08 04:45:08;;;;;;;8.60;6.43;;;;;;;;;;5036530;28;20044;-64
2022/07/08 04:47:34;;;;;;;11.80;6.97;;;;;;;;;;5038607;28;20057;-65
2022/07/08 04:49:59;;;;;;;8.82;6.68;;;;;;;;;;5046301;28;20065;-65
2022/07/08 04:52:25;;;;;;;9.32;6.50;;;;;;;;;;5040116;28;20489;-65
2022/07/08 04:54:51;;;;;;;11.52;6.35;;;;;;;;;;5043699;28;20028;-64
2022/07/08 04:57:16;;;;;;;9.60;6.15;;;;;;;;;;5048766;28;20075;-65
2022/07/08 04:59:42;;;;;;;7.53;6.20;;;;;;;;;;5050843;28;20151;-64
2022/07/08 05:02:07;;;;;;;11.40;6.20;;;;;;;;;;5040881;28;20095;-65
2022/07/08 05:04:33;;;;;;;11.38;6.50;;;;;;;;;;5046230;28;20484;-64
2022/07/08 05:06:59;;;;;;;9.18;6.88;;;;;;;;;;5047390;28;20554;-64
2022/07/08 05:09:24;;;;;;;10.25;7.03;;;;;;;;;;5049682;28;20515;-64
2022/07/08 05:11:50;;;;;;;12.60;7.18;;;;;;;;;;5045903;28;20270;-64
2022/07/08 05:14:16;;;;;;;10.25;6.75;;;;;;;;;;5046156;28;20041;-64
2022/07/08 05:16:43;;;;;;;9.88;6.53;;;;;;;;;;5049724;28;20102;-64
2022/07/08 05:19:09;;;;;;;10.40;6.90;;;;;;;;;;5050470;28;20036;-64
2022/07/08 05:21:38;;;;;;;7.88;6.18;;;;;;;;;;5041007;28;20394;-64
2022/07/08 05:24:05;;;;;;;7.68;6.38;;;;;;;;;;5045311;28;20041;-64
2022/07/08 05:26:30;;;;;;;7.65;6.20;;;;;;;;;;5043244;28;20046;-65
2022/07/08 05:28:56;;;;;;;9.80;6.68;;;;;;;;;;5045165;28;20033;-64
2022/07/08 05:31:21;;;;;;;7.20;6.40;;;;;;;;;;5054505;28;20475;-65
2022/07/08 05:33:47;;;;;;;7.30;6.60;;;;;;;;;;5045372;28;20041;-65
2022/07/08 05:36:13;;;;;;;8.00;6.57;;;;;;;;;;5050845;28;20025;-64
2022/07/08 05:38:38;;;;;;;14.95;7.10;;;;;;;;;;5050461;28;20510;-64
2022/07/08 05:41:04;;;;;;;8.35;6.32;;;;;;;;;;5053176;28;20064;-64
2022/07/08 05:43:30;;;;;;;9.27;6.85;;;;;;;;;;5044873;28;20060;-64
2022/07/08 05:45:55;;;;;;;11.43;6.97;;;;;;;;;;5048522;28;20033;-64
2022/07/08 05:48:21;;;;;;;11.93;6.75;;;;;;;;;;5046621;28;20041;-64
2022/07/08 05:50:48;;;;;;;10.15;6.70;;;;;;;;;;5040781;28;20586;-64
2022/07/08 05:53:17;;;;;;;9.30;6.82;;;;;;;;;;5043810;28;20396;-64
2022/07/08 05:55:43;;;;;;;8.70;7.25;;;;;;;;;;5044503;28;20557;-65
2022/07/08 05:58:09;;;;;;;8.57;6.65;;;;;;;;;;5043406;28;20036;-65
2022/07/08 06:00:35;;;;;;;9.00;6.45;;;;;;;;;;5038023;28;20083;-65
2022/07/08 06:03:03;;;;;;;7.45;6.22;;;;;;;;;;5051281;28;20033;-65
2022/07/08 06:05:29;;;;;;;8.85;6.00;;;;;;;;;;5051442;28;20051;-64
2022/07/08 06:07:54;;;;;;;7.68;6.40;;;;;;;;;;5060988;28;20415;-65
2022/07/08 06:10:20;;;;;;;10.38;6.80;;;;;;;;;;5051392;28;20037;-65
2022/07/08 06:12:46;;;;;;;7.75;6.95;;;;;;;;;;5047368;28;20481;-64
2022/07/08 06:15:14;;;;;;;8.60;6.80;;;;;;;;;;5046950;28;20035;-64
2022/07/08 06:17:41;;;;;;;11.55;6.90;;;;;;;;;;5049393;28;20040;-64
2022/07/08 06:20:07;;;;;;;12.95;6.70;;;;;;;;;;5040739;28;20049;-64
2022/07/08 06:22:33;;;;;;;6.90;6.30;;;;;;;;;;5035420;28;20785;-65
2022/07/08 06:24:59;;;;;;;10.65;6.97;;;;;;;;;;5043554;28;20041;-64
2022/07/08 06:27:26;;;;;;;9.75;5.93;;;;;;;;;;5046652;28;20109;-64
2022/07/08 06:29:51;;;;;;;8.40;6.28;;;;;;;;;;5049879;28;20119;-64
2022/07/08 06:32:17;;;;;;;8.52;6.15;;;;;;;;;;5045405;28;20116;-64
2022/07/08 06:34:46;;;;;;;9.75;6.55;;;;;;;;;;5030303;28;20096;-64
2022/07/08 06:37:11;;;;;;;12.70;6.57;;;;;;;;;;5041623;28;20471;-64
2022/07/08 06:39:37;;;;;;;9.30;6.20;;;;;;;;;;5047494;28;20404;-64
2022/07/08 06:42:03;;;;;;;11.15;6.30;;;;;;;;;;5051362;28;20035;-65
2022/07/08 06:44:33;;;;;;;10.63;6.53;;;;;;;;;;5044184;28;21557;-65
2022/07/08 06:46:59;;;;;;;11.18;7.00;;;;;;;;;;5047338;28;20183;-64
2022/07/08 06:49:24;;;;;;;9.25;5.70;;;;;;;;;;5043095;28;20032;-64
2022/07/08 06:51:50;;;;;;;8.35;5.97;;;;;;;;;;5038703;28;20079;-64
2022/07/08 06:57:00;;;;;;;6.60;6.00;;;;;;;;;;5041920;28;20037;-65
2022/07/08 06:59:25;;;;;;;8.25;5.97;;;;;;;;;;5049143;28;20035;-65
2022/07/08 07:01:52;;;;;;;8.85;6.10;;;;;;;;;;5044879;28;20029;-64
2022/07/08 07:04:18;;;;;;;8.73;6.15;;;;;;;;;;5042807;28;20045;-64
2022/07/08 07:06:44;;;;;;;6.57;5.97;;;;;;;;;;5040037;28;20033;-64
2022/07/08 07:09:10;;;;;;;7.60;6.10;;;;;;;;;;5046229;28;20029;-64
2022/07/08 07:11:38;;;;;;;8.25;6.25;;;;;;;;;;5044339;28;20040;-63
2022/07/08 07:14:04;;;;;;;8.82;6.30;;;;;;;;;;5040893;28;20039;-64
2022/07/08 07:16:29;;;;;;;6.53;5.90;;;;;;;;;;5045317;28;20048;-63
2022/07/08 07:18:55;;;;;;;9.95;6.10;;;;;;;;;;5046722;28;20026;-64
2022/07/08 07:21:21;;;;;;;9.00;5.88;;;;;;;;;;5043919;28;20031;-64
2022/07/08 07:23:46;;;;;;;7.68;6.00;;;;;;;;;;5043565;28;20041;-64
2022/07/08 07:26:12;;;;;;;5.47;5.00;;;;;;;;;;5045496;28;20587;-64
2022/07/08 07:28:37;;;;;;;6.13;5.50;;;;;;;;;;5043431;28;20032;-64
2022/07/08 07:31:03;;;;;;;10.85;5.53;;;;;;;;;;5047356;28;20097;-65
2022/07/08 07:33:29;;;;;;;5.85;5.25;;;;;;;;;;5039033;28;20037;-65
2022/07/08 07:35:56;;;;;;;6.53;5.60;;;;;;;;;;5045422;28;20037;-65
2022/07/08 07:38:21;;;;;;;10.52;5.68;;;;;;;;;;5041427;28;20025;-64
2022/07/08 07:40:47;;;;;;;6.88;5.70;;;;;;;;;;5045501;28;20039;-64
2022/07/08 07:43:13;;;;;;;7.53;5.60;;;;;;;;;;5041773;28;20051;-63
2022/07/08 07:45:38;;;;;;;6.55;5.82;;;;;;;;;;5042701;28;20033;-65
2022/07/08 07:48:04;;;;;;;6.70;5.60;;;;;;;;;;5042028;28;20079;-64
2022/07/08 07:50:30;;;;;;;7.65;5.70;;;;;;;;;;5043145;28;20037;-64
2022/07/08 07:52:55;;;;;;;6.63;5.40;;;;;;;;;;5042339;28;20055;-63
2022/07/08 07:55:21;;;;;;;6.90;5.47;;;;;;;;;;5037508;28;20031;-64
2022/07/08 07:57:48;;;;;;;7.82;5.30;;;;;;;;;;5045634;28;20044;-64
2022/07/08 08:00:15;;;;;;;6.97;5.60;;;;;;;;;;5045690;28;20039;-64
2022/07/08 08:02:41;;;;;;;7.47;5.22;;;;;;;;;;5043527;28;20032;-65
2022/07/08 08:05:09;;;;;;;5.78;5.25;;;;;;;;;;5044339;28;20135;-64
2022/07/08 08:07:39;;;;;;;6.95;5.88;;;;;;;;;;5040742;28;20071;-64
2022/07/08 08:10:07;;;;;;;6.35;5.75;;;;;;;;;;5045656;28;20127;-64
2022/07/08 08:12:32;;;;;;;10.40;6.10;;;;;;;;;;5046311;28;20033;-64
2022/07/08 08:14:58;;;;;;;7.25;6.30;;;;;;;;;;5043980;28;20043;-65
2022/07/08 08:17:23;;;;;;;8.02;5.28;;;;;;;;;;5036558;28;20667;-64
2022/07/08 08:19:49;;;;;;;6.43;5.88;;;;;;;;;;5034341;28;20040;-65
2022/07/08 08:22:15;;;;;;;6.25;5.53;;;;;;;;;;5045660;28;20643;-65
2022/07/08 08:24:42;;;;;;;7.38;5.28;;;;;;;;;;5041712;28;20033;-65
2022/07/08 08:27:08;;;;;;;5.35;4.95;;;;;;;;;;5046623;28;20040;-66
2022/07/08 08:29:34;;;;;;;6.13;5.53;;;;;;;;;;5047776;28;20037;-64
2022/07/08 08:31:59;;;;;;;7.15;5.70;;;;;;;;;;5048918;28;20034;-65
2022/07/08 08:34:25;;;;;;;7.75;5.80;;;;;;;;;;5046950;28;20034;-64
2022/07/08 08:36:50;;;;;;;6.03;5.43;;;;;;;;;;5047086;28;20396;-64
2022/07/08 08:39:16;;;;;;;7.78;5.32;;;;;;;;;;5044298;28;20041;-65
2022/07/08 08:41:42;;;;;;;7.13;5.70;;;;;;;;;;5046916;28;20783;-65
2022/07/08 08:44:09;;;;;;;9.07;5.88;;;;;;;;;;5045044;28;20064;-65
2022/07/08 08:46:35;;;;;;;6.38;4.88;;;;;;;;;;5044806;28;20156;-65
2022/07/08 08:49:02;;;;;;;5.38;4.93;;;;;;;;;;5049436;28;20487;-65
2022/07/08 08:51:31;;;;;;;5.32;4.82;;;;;;;;;;5050851;28;20836;-64
2022/07/08 08:53:58;;;;;;;6.50;5.30;;;;;;;;;;5051224;28;20090;-65
2022/07/08 08:56:25;;;;;;;5.07;4.65;;;;;;;;;;5047762;28;20041;-64
2022/07/08 08:58:53;;;;;;;10.32;5.22;;;;;;;;;;5049280;28;20037;-66
2022/07/08 09:01:19;;;;;;;9.07;5.18;;;;;;;;;;5049467;28;20037;-65
2022/07/08 09:03:46;;;;;;;5.85;5.35;;;;;;;;;;5045909;28;20026;-65
2022/07/08 09:06:12;;;;;;;5.63;5.13;;;;;;;;;;5043461;28;20037;-65
2022/07/08 09:08:38;;;;;;;6.55;5.63;;;;;;;;;;5049148;28;20024;-65
2022/07/08 09:11:04;;;;;;;7.55;5.22;;;;;;;;;;5047694;28;20025;-65
2022/07/08 09:13:30;;;;;;;6.07;5.07;;;;;;;;;;5049419;28;20502;-65
2022/07/08 09:15:58;;;;;;;5.95;4.88;;;;;;;;;;5045317;28;20044;-65
2022/07/08 09:18:32;;;;;;;8.43;5.20;;;;;;;;;;5048477;28;20666;-64
2022/07/08 09:20:59;;;;;;;5.50;5.00;;;;;;;;;;5048908;28;20045;-66
2022/07/08 09:23:30;;;;;;;5.63;5.13;;;;;;;;;;5049546;28;20055;-65
2022/07/08 09:25:58;;;;;;;9.18;5.15;;;;;;;;;;5049053;28;20048;-64
2022/07/08 09:28:31;;;;;;;9.48;5.30;;;;;;;;;;5046536;28;20039;-64
2022/07/08 09:30:58;;;;;;;10.35;5.35;;;;;;;;;;5046590;28;20123;-63
2022/07/08 09:33:25;;;;;;;7.93;4.85;;;;;;;;;;5047991;28;20451;-63
2022/07/08 09:35:51;;;;;;;7.22;5.00;;;;;;;;;;5052060;28;20033;-64
2022/07/08 09:38:20;;;;;;;5.82;4.97;;;;;;;;;;5040342;28;20029;-64
2022/07/08 09:41:02;;;;;;;6.03;5.22;;;;;;;;;;5048436;28;20040;-63
2022/07/08 09:43:28;;;;;;;6.40;5.15;;;;;;;;;;5051472;28;20029;-63
2022/07/08 09:46:02;;;;;;;8.15;5.20;;;;;;;;;;5044534;28;20064;-64
2022/07/08 09:48:28;;;;;;;5.45;4.95;;;;;;;;;;5045643;28;20020;-65
2022/07/08 09:50:54;;;;;;;5.32;4.80;;;;;;;;;;5045094;28;20037;-65
2022/07/08 09:53:27;;;;;;;6.43;5.28;;;;;;;;;;5044045;28;20039;-64
2022/07/08 09:55:54;;;;;;;5.95;5.35;;;;;;;;;;5045488;28;20033;-64
2022/07/08 09:58:26;;;;;;;5.75;5.25;;;;;;;;;;5048347;28;20035;-63
2022/07/08 10:00:53;;;;;;;5.57;5.07;;;;;;;;;;5048678;28;20423;-65
2022/07/08 10:03:21;;;;;;;6.28;5.60;;;;;;;;;;5048216;28;20128;-64
2022/07/08 10:05:47;;;;;;;7.10;5.50;;;;;;;;;;5047139;28;20095;-64
2022/07/08 10:08:14;;;;;;;6.68;5.18;;;;;;;;;;5049870;28;20094;-63
2022/07/08 10:10:43;;;;;;;5.55;4.93;;;;;;;;;;5044501;28;20036;-64
2022/07/08 10:13:10;;;;;;;5.68;4.95;;;;;;;;;;5047294;28;20037;-64
2022/07/08 10:15:37;;;;;;;5.70;5.13;;;;;;;;;;5042158;28;20127;-65
2022/07/08 10:18:08;;;;;;;7.03;5.13;;;;;;;;;;5043453;28;20116;-65
2022/07/08 10:20:38;;;;;;;6.45;5.05;;;;;;;;;;5046898;28;20037;-65
2022/07/08 10:23:11;;;;;;;7.25;5.13;;;;;;;;;;5045812;28;20419;-64
2022/07/08 10:25:37;;;;;;;7.57;5.10;;;;;;;;;;5042896;28;20123;-64
2022/07/08 10:28:07;;;;;;;7.65;5.35;;;;;;;;;;5046052;28;20065;-64
2022/07/08 10:30:46;;;;;;;6.38;4.93;;;;;;;;;;5048889;28;20492;-64
2022/07/08 10:33:23;;;;;;;5.55;4.90;;;;;;;;;;5044519;28;20041;-63
2022/07/08 10:36:02;;;;;;;6.00;4.88;;;;;;;;;;5044501;28;20635;-64
2022/07/08 10:38:37;;;;;;;6.25;4.55;;;;;;;;;;5042075;28;20793;-65
2022/07/08 10:41:06;;;;;;;5.38;4.97;;;;;;;;;;5045160;28;20108;-64
2022/07/08 10:43:32;;;;;;;5.13;4.68;;;;;;;;;;5041714;28;20516;-64
2022/07/08 10:46:15;;;;;;;5.50;4.63;;;;;;;;;;5044786;28;20029;-63
2022/07/08 10:48:40;;;;;;;5.25;4.70;;;;;;;;;;5044492;28;20452;-63
2022/07/08 10:51:26;;;;;;;6.05;4.78;;;;;;;;;;5043174;28;20090;-63
2022/07/08 10:54:05;;;;;;;6.97;4.93;;;;;;;;;;5034915;28;20060;-63
2022/07/08 10:56:50;;;;;;;5.82;4.88;;;;;;;;;;5044625;28;20083;-63
2022/07/08 10:59:33;;;;;;;11.07;5.65;;;;;;;;;;5044488;28;20094;-62
2022/07/08 11:02:04;;;;;;;7.32;4.70;;;;;;;;;;5043032;28;20082;-64
2022/07/08 11:04:43;;;;;;;7.03;5.20;;;;;;;;;;5044863;28;20500;-63
2022/07/08 11:07:14;;;;;;;;;;;;;;;;;;5046147;28;20036;-64
2022/07/08 11:09:45;;;;;;;6.75;5.03;;;;;;;;;;5039555;28;20035;-64
2022/07/08 11:12:17;;;;;;;6.10;5.20;;;;;;;;;;5044221;28;20060;-64
2022/07/08 11:14:44;;;;;;;4.78;4.38;;;;;;;;;;5038628;28;20399;-63
2022/07/08 11:17:23;;;;;;;6.60;4.80;;;;;;;;;;5043995;28;20029;-64
2022/07/08 11:19:50;;;;;;;;;;;;;;;;;;5041551;28;20052;-64
2022/07/08 11:22:16;;;;;;;7.38;5.00;;;;;;;;;;5044825;28;19960;-65
2022/07/08 11:24:46;;;;;;;5.22;4.22;;;;;;;;;;5039440;28;20063;-64
2022/07/08 11:27:12;;;;;;;5.95;4.93;;;;;;;;;;5041984;28;20040;-64
2022/07/08 11:29:46;;;;;;;6.80;4.82;;;;;;;;;;5040162;28;20063;-64
2022/07/08 11:32:11;;;;;;;6.75;4.78;;;;;;;;;;5040599;28;20507;-64
2022/07/08 11:34:37;;;;;;;5.28;4.80;;;;;;;;;;5043013;28;20037;-64
2022/07/08 11:37:03;;;;;;;5.90;4.68;;;;;;;;;;5043842;28;20033;-66
2022/07/08 11:39:29;;;;;;;7.03;4.63;;;;;;;;;;5039383;28;20103;-64
2022/07/08 11:41:55;;;;;;;5.03;4.63;;;;;;;;;;5040522;28;20049;-64
2022/07/08 11:44:21;;;;;;;5.07;4.60;;;;;;;;;;5043737;28;20056;-64
2022/07/08 11:46:48;;;;;;;7.20;5.22;;;;;;;;;;5038874;28;20663;-65
2022/07/08 11:49:14;;;;;;;6.75;5.50;;;;;;;;;;5042149;28;20059;-64
2022/07/08 11:51:47;;;;;;;5.20;4.78;;;;;;;;;;5038546;28;20764;-64
2022/07/08 11:54:22;;;;;;;7.22;4.78;;;;;;;;;;5044069;28;20032;-64
2022/07/08 11:56:52;;;;;;;12.05;5.50;;;;;;;;;;5039395;28;20061;-64
2022/07/08 11:59:22;;;;;;;6.95;5.10;;;;;;;;;;5042074;28;20028;-67
2022/07/08 12:01:49;;;;;;;5.18;4.70;;;;;;;;;;5041210;28;20044;-65
2022/07/08 12:04:15;;;;;;;5.85;4.85;;;;;;;;;;5042991;28;20025;-65
2022/07/08 12:06:51;;;;;;;5.07;4.60;;;;;;;;;;5038521;28;20040;-64
2022/07/08 12:09:19;;;;;;;5.25;4.60;;;;;;;;;;5045106;28;20132;-65
2022/07/08 12:11:46;;;;;;;5.22;4.82;;;;;;;;;;5040350;28;20067;-64
2022/07/08 12:14:12;;;;;;;5.93;4.60;;;;;;;;;;5037173;28;20060;-64
2022/07/08 12:16:55;;;;;;;6.63;4.75;;;;;;;;;;5043706;28;20041;-64
2022/07/08 12:19:35;;;;;;;5.28;4.65;;;;;;;;;;5043439;28;20056;-64
2022/07/08 12:22:03;;;;;;;5.03;4.55;;;;;;;;;;5042260;28;20033;-64
2022/07/08 12:24:40;;;;;;;5.00;4.63;;;;;;;;;;5038498;28;20041;-65
2022/07/08 12:27:08;;;;;;;5.22;4.70;;;;;;;;;;5047525;28;20037;-64
2022/07/08 12:29:38;;;;;;;8.23;5.38;;;;;;;;;;5040170;28;20434;-64
2022/07/08 12:32:05;;;;;;;9.88;5.47;;;;;;;;;;5039070;28;20037;-65
2022/07/08 12:34:31;;;;;;;5.75;5.10;;;;;;;;;;5041950;28;20066;-65
2022/07/08 12:37:14;;;;;;;7.32;5.07;;;;;;;;;;5041793;28;20048;-66
2022/07/08 12:39:40;;;;;;;8.13;5.25;;;;;;;;;;5040388;28;20048;-64
2022/07/08 12:42:07;;;;;;;6.30;5.63;;;;;;;;;;5039770;28;20037;-65
2022/07/08 12:44:36;;;;;;;7.03;5.38;;;;;;;;;;5042600;28;20029;-65
2022/07/08 12:47:04;;;;;;;7.78;5.50;;;;;;;;;;5033676;28;20041;-65
2022/07/08 12:49:31;;;;;;;7.05;5.00;;;;;;;;;;5042166;28;20059;-64
2022/07/08 12:51:58;;;;;;;6.80;4.93;;;;;;;;;;5035902;28;20029;-65
2022/07/08 12:54:24;;;;;;;6.70;5.13;;;;;;;;;;5043666;28;20040;-65
2022/07/08 12:56:51;;;;;;;7.15;4.95;;;;;;;;;;5032763;28;20033;-65
2022/07/08 12:59:18;;;;;;;7.70;5.13;;;;;;;;;;5042493;28;20075;-65
2022/07/08 13:01:44;;;;;;;5.45;4.97;;;;;;;;;;5040882;28;20857;-65
2022/07/08 13:04:10;;;;;;;5.65;5.13;;;;;;;;;;5038983;28;20037;-65
2022/07/08 13:06:35;;;;;;;5.40;4.90;;;;;;;;;;5037414;28;20044;-65
2022/07/08 13:09:03;;;;;;;6.00;5.30;;;;;;;;;;5039253;28;20029;-65
2022/07/08 13:11:28;;;;;;;7.47;5.43;;;;;;;;;;5038882;28;20044;-65
2022/07/08 13:13:54;;;;;;;5.30;4.80;;;;;;;;;;5037558;28;20037;-64
2022/07/08 13:16:19;;;;;;;5.43;4.93;;;;;;;;;;5042467;28;20117;-64
2022/07/08 13:18:45;;;;;;;6.47;4.78;;;;;;;;;;5047673;28;20052;-64
2022/07/08 13:21:11;;;;;;;5.10;4.63;;;;;;;;;;5046869;28;20041;-64
2022/07/08 13:23:36;;;;;;;4.85;4.45;;;;;;;;;;5042871;28;20060;-64
2022/07/08 13:26:02;;;;;;;5.72;4.65;;;;;;;;;;5043197;28;20037;-64
2022/07/08 13:28:27;;;;;;;8.52;5.00;;;;;;;;;;5041797;28;20472;-64
2022/07/08 13:30:53;;;;;;;5.05;4.55;;;;;;;;;;5040841;28;20876;-64
2022/07/08 13:33:19;;;;;;;5.45;4.95;;;;;;;;;;5035591;28;20029;-64
2022/07/08 13:35:45;;;;;;;5.30;4.63;;;;;;;;;;5043531;28;20751;-65
2022/07/08 13:38:10;;;;;;;5.18;4.65;;;;;;;;;;5043171;28;20037;-66
2022/07/08 13:40:36;;;;;;;7.82;4.95;;;;;;;;;;5043997;28;20048;-65
2022/07/08 13:43:01;;;;;;;8.38;4.88;;;;;;;;;;5043260;28;20604;-65
2022/07/08 13:45:27;;;;;;;6.13;5.05;;;;;;;;;;5045392;28;20029;-65
2022/07/08 13:47:53;;;;;;;6.20;5.20;;;;;;;;;;5041072;28;20550;-65
2022/07/08 13:50:19;;;;;;;7.70;4.97;;;;;;;;;;5043938;28;20032;-64
2022/07/08 13:52:45;;;;;;;7.65;4.85;;;;;;;;;;5042135;28;20032;-64
2022/07/08 13:55:10;;;;;;;6.90;5.40;;;;;;;;;;5044986;28;20198;-65
2022/07/08 13:57:36;;;;;;;5.93;4.97;;;;;;;;;;5043881;28;20499;-64
2022/07/08 14:00:05;;;;;;;10.05;5.30;;;;;;;;;;5038402;28;20034;-65
2022/07/08 14:02:38;;;;;;;5.47;4.97;;;;;;;;;;5043370;28;20029;-64
2022/07/08 14:05:04;;;;;;;5.95;5.35;;;;;;;;;;5041535;28;20044;-64
2022/07/08 14:07:30;;;;;;;6.07;5.20;;;;;;;;;;5048168;28;20047;-64
2022/07/08 14:09:55;;;;;;;6.68;4.68;;;;;;;;;;5044712;28;20037;-63
2022/07/08 14:12:21;;;;;;;5.57;5.00;;;;;;;;;;5041399;28;20345;-64
2022/07/08 14:14:47;;;;;;;6.28;5.22;;;;;;;;;;5038532;28;20048;-67
2022/07/08 14:17:14;;;;;;;6.38;5.13;;;;;;;;;;5048350;28;20035;-64
2022/07/08 14:19:40;;;;;;;6.85;5.18;;;;;;;;;;5042401;28;20041;-66
2022/07/08 14:22:06;;;;;;;8.73;4.80;;;;;;;;;;5046477;28;20059;-65
2022/07/08 14:24:32;;;;;;;7.32;4.68;;;;;;;;;;5041446;28;20045;-65
2022/07/08 14:26:57;;;;;;;7.18;5.20;;;;;;;;;;5042661;28;20476;-65
2022/07/08 14:29:23;;;;;;;5.68;5.18;;;;;;;;;;5049671;28;20431;-65
2022/07/08 14:31:49;;;;;;;7.70;5.03;;;;;;;;;;5049387;28;20048;-65
2022/07/08 14:34:15;;;;;;;9.05;4.95;;;;;;;;;;5041266;28;20408;-65
2022/07/08 14:36:41;;;;;;;5.22;4.70;;;;;;;;;;5045555;28;20124;-65
2022/07/08 14:39:06;;;;;;;5.13;4.55;;;;;;;;;;5046083;28;20604;-64
2022/07/08 14:41:33;;;;;;;6.30;4.90;;;;;;;;;;5046026;28;20106;-65
2022/07/08 14:43:59;;;;;;;5.88;4.75;;;;;;;;;;5046596;28;20090;-64
2022/07/08 14:46:25;;;;;;;7.25;4.43;;;;;;;;;;5045669;28;20453;-65